Time;durP1;ratioP1;P1;durP2;ratioP2;P2;SDS_P1;SDS_P2;PMS_P1;PMS_P2;Temp;Humidity;BMP_temperature;BMP_pressure;BME280_temperature;BME280_humidity;BME280_pressure;Samples;Min_cycle;Max_cycle;Signal;HPM_P1;HPM_P2
2023/03/05 00:01:36;;;;;;;11.35;3.38;;;;;;;3.47;100.00;-18121.28;5061838;28;20389;-85
2023/03/05 00:04:03;;;;;;;10.30;4.18;;;;;;;3.50;100.00;-18122.09;5062231;28;20036;-85
2023/03/05 00:06:30;;;;;;;8.10;3.38;;;;;;;3.50;100.00;-18121.97;5053282;28;20511;-86
2023/03/05 00:08:57;;;;;;;11.10;3.80;;;;;;;3.48;100.00;-18121.41;5066732;28;20120;-86
2023/03/05 00:11:26;;;;;;;12.85;3.63;;;;;;;3.47;100.00;-18121.13;5068506;28;20044;-86
2023/03/05 00:13:52;;;;;;;10.93;3.90;;;;;;;3.48;100.00;-18121.56;5057817;28;20056;-87
2023/03/05 00:16:19;;;;;;;11.68;3.80;;;;;;;3.44;100.00;-18120.31;5051679;28;20427;-86
2023/03/05 00:18:45;;;;;;;12.88;3.78;;;;;;;3.42;100.00;-18119.88;5068821;28;20508;-86
2023/03/05 00:21:17;;;;;;;12.70;3.78;;;;;;;3.42;100.00;-18119.88;5067173;28;20111;-86
2023/03/05 00:23:42;;;;;;;10.50;3.42;;;;;;;3.43;100.00;-18120.03;5073196;28;20047;-86
2023/03/05 00:26:07;;;;;;;14.27;2.90;;;;;;;3.41;100.00;-18119.63;5068127;28;20041;-86
2023/03/05 00:28:33;;;;;;;8.95;3.42;;;;;;;3.39;100.00;-18119.19;5054788;28;20052;-86
2023/03/05 00:31:00;;;;;;;12.68;3.53;;;;;;;3.41;100.00;-18119.47;5055810;28;20047;-86
2023/03/05 00:33:25;;;;;;;18.00;3.85;;;;;;;3.35;100.00;-18118.09;5069481;28;20336;-86
2023/03/05 00:35:50;;;;;;;12.27;3.35;;;;;;;3.37;100.00;-18118.66;5058535;28;20053;-86
2023/03/05 00:38:16;;;;;;;9.77;3.50;;;;;;;3.41;100.00;-18119.63;5051963;28;20094;-86
2023/03/05 00:40:41;;;;;;;13.05;3.35;;;;;;;3.39;100.00;-18119.19;5059635;28;20045;-86
2023/03/05 00:43:08;;;;;;;9.13;3.13;;;;;;;3.36;100.00;-18118.38;5055567;28;20100;-87
2023/03/05 00:45:34;;;;;;;11.05;3.67;;;;;;;3.35;100.00;-18118.09;5062817;28;20040;-86
2023/03/05 00:47:59;;;;;;;14.65;3.47;;;;;;;3.34;100.00;-18117.81;5073273;28;21223;-86
2023/03/05 00:50:25;;;;;;;9.73;2.83;;;;;;;3.36;100.00;-18118.38;5067601;28;20128;-86
2023/03/05 00:52:51;;;;;;;8.90;2.60;;;;;;;3.33;100.00;-18117.53;5057136;28;20037;-86
2023/03/05 00:55:17;;;;;;;14.88;3.80;;;;;;;3.33;100.00;-18117.41;5056216;28;20671;-86
2023/03/05 00:57:42;;;;;;;9.25;3.33;;;;;;;3.31;100.00;-18117.00;5049387;28;20044;-86
2023/03/05 01:00:08;;;;;;;12.23;3.47;;;;;;;3.33;100.00;-18117.41;5062086;28;20048;-86
2023/03/05 01:02:34;;;;;;;10.93;3.10;;;;;;;3.33;100.00;-18117.41;5050431;28;20063;-87
2023/03/05 01:04:59;;;;;;;9.23;3.60;;;;;;;3.30;100.00;-18116.72;5044411;28;20036;-86
2023/03/05 01:07:24;;;;;;;11.38;3.30;;;;;;;3.37;100.00;-18118.66;5062744;28;20044;-86
2023/03/05 01:09:50;;;;;;;8.27;3.17;;;;;;;3.34;100.00;-18117.81;5064596;28;20045;-86
2023/03/05 01:12:15;;;;;;;14.18;3.75;;;;;;;3.34;100.00;-18117.69;5050305;28;20029;-87
2023/03/05 01:14:41;;;;;;;11.13;3.10;;;;;;;3.32;100.00;-18117.25;5063453;28;20073;-86
2023/03/05 01:17:07;;;;;;;9.50;3.47;;;;;;;3.31;100.00;-18117.00;5061439;28;20032;-86
2023/03/05 01:19:32;;;;;;;10.50;3.33;;;;;;;3.28;100.00;-18116.00;5061318;28;20037;-85
2023/03/05 01:21:58;;;;;;;12.40;3.90;;;;;;;3.26;100.00;-18115.47;5064162;28;20521;-86
2023/03/05 01:24:24;;;;;;;10.80;3.10;;;;;;;3.25;100.00;-18115.31;5062447;28;20047;-86
2023/03/05 01:26:49;;;;;;;8.88;3.10;;;;;;;3.26;100.00;-18115.59;5065219;28;20067;-86
2023/03/05 01:29:15;;;;;;;8.35;4.32;;;;;;;3.27;100.00;-18115.88;5062085;28;20098;-86
2023/03/05 01:31:40;;;;;;;12.48;2.95;;;;;;;3.27;100.00;-18115.88;5049320;28;20983;-86
2023/03/05 01:34:06;;;;;;;9.93;3.47;;;;;;;3.24;100.00;-18115.06;5064198;28;20538;-86
2023/03/05 01:36:31;;;;;;;7.93;2.75;;;;;;;3.27;100.00;-18115.75;5050183;28;20504;-86
2023/03/05 01:38:57;;;;;;;8.65;2.83;;;;;;;3.26;100.00;-18115.59;5073257;28;20047;-87
2023/03/05 01:41:22;;;;;;;16.13;3.22;;;;;;;3.26;100.00;-18115.59;5057449;28;20052;-90
2023/03/05 01:43:48;;;;;;;12.50;3.50;;;;;;;3.29;100.00;-18116.44;5041692;28;20082;-88
2023/03/05 01:46:25;;;;;;;10.07;3.25;;;;;;;3.25;100.00;-18115.31;5067087;28;20407;-89
2023/03/05 01:49:12;;;;;;;18.00;3.30;;;;;;;3.23;100.00;-18114.63;5050430;28;20128;-89
2023/03/05 01:51:44;;;;;;;5.63;2.85;;;;;;;3.21;100.00;-18114.09;5034946;28;20044;-89
2023/03/05 01:54:13;;;;;;;8.25;3.42;;;;;;;3.24;100.00;-18115.06;5035674;28;20033;-89
2023/03/05 01:56:40;;;;;;;6.45;2.60;;;;;;;3.21;100.00;-18114.22;5049602;28;20060;-89
2023/03/05 01:59:05;;;;;;;10.60;2.65;;;;;;;3.18;100.00;-18113.38;5056699;28;20093;-89
2023/03/05 02:01:35;;;;;;;7.75;2.58;;;;;;;3.19;100.00;-18113.53;5053714;28;20057;-89
2023/03/05 02:04:01;;;;;;;7.15;2.90;;;;;;;3.20;100.00;-18113.94;5056444;28;20037;-88
2023/03/05 02:06:26;;;;;;;8.52;3.25;;;;;;;3.21;100.00;-18114.22;5056786;28;20037;-89
2023/03/05 02:08:52;;;;;;;10.73;3.22;;;;;;;3.26;100.00;-18115.47;5046859;28;20514;-89
2023/03/05 02:11:19;;;;;;;11.50;3.03;;;;;;;3.26;100.00;-18115.47;5051798;28;20041;-88
2023/03/05 02:13:44;;;;;;;9.82;3.33;;;;;;;3.22;100.00;-18114.34;5050643;28;20076;-89
2023/03/05 02:16:10;;;;;;;10.00;2.92;;;;;;;3.23;100.00;-18114.63;5056282;28;20065;-89
2023/03/05 02:18:35;;;;;;;10.98;3.70;;;;;;;3.24;100.00;-18115.06;5054504;28;20195;-89
2023/03/05 02:21:05;;;;;;;11.85;2.97;;;;;;;3.21;100.00;-18114.22;5042097;28;20044;-90
2023/03/05 02:23:35;;;;;;;10.88;3.22;;;;;;;3.13;100.00;-18112.00;5058597;28;20044;-89
2023/03/05 02:26:08;;;;;;;11.70;2.90;;;;;;;3.14;100.00;-18112.28;5060669;28;20147;-89
2023/03/05 02:28:45;;;;;;;8.13;2.65;;;;;;;3.11;100.00;-18111.59;5036222;28;20044;-89
2023/03/05 02:31:22;;;;;;;9.57;2.92;;;;;;;3.11;100.00;-18111.47;5050473;28;20055;-88
2023/03/05 02:33:48;;;;;;;8.23;3.03;;;;;;;3.11;100.00;-18111.47;5043308;28;20056;-89
2023/03/05 02:36:15;;;;;;;8.27;2.15;;;;;;;3.09;100.00;-18111.03;5058034;28;20040;-89
2023/03/05 02:38:41;;;;;;;15.23;4.05;;;;;;;3.12;100.00;-18111.72;5052798;28;20049;-89
2023/03/05 02:41:07;;;;;;;9.10;2.47;;;;;;;3.11;100.00;-18111.47;4986864;28;20065;-89
2023/03/05 02:43:33;;;;;;;6.03;2.97;;;;;;;3.07;100.00;-18110.34;4994878;28;20163;-88
2023/03/05 02:45:58;;;;;;;8.43;2.97;;;;;;;3.04;100.00;-18109.53;4993181;28;20060;-89
2023/03/05 02:48:23;;;;;;;14.77;3.00;;;;;;;3.04;100.00;-18109.53;5011730;28;20041;-89
2023/03/05 02:50:49;;;;;;;9.80;3.10;;;;;;;3.03;100.00;-18109.38;4988844;28;20049;-89
2023/03/05 02:53:14;;;;;;;6.40;2.83;;;;;;;3.01;100.00;-18108.69;5009225;28;20069;-89
2023/03/05 02:55:40;;;;;;;8.07;2.15;;;;;;;2.98;100.00;-18107.88;4989244;28;20064;-90
2023/03/05 02:58:05;;;;;;;7.30;3.10;;;;;;;2.99;100.00;-18108.13;4992577;28;20489;-89
2023/03/05 03:00:31;;;;;;;10.50;2.90;;;;;;;3.02;100.00;-18108.97;5005022;28;20053;-89
2023/03/05 03:02:56;;;;;;;6.85;2.50;;;;;;;2.99;100.00;-18108.13;4994681;28;20057;-89
2023/03/05 03:05:22;;;;;;;8.60;3.75;;;;;;;2.97;100.00;-18107.72;4988677;28;20057;-88
2023/03/05 03:07:48;;;;;;;11.02;2.97;;;;;;;3.00;100.00;-18108.41;5018703;28;20436;-89
2023/03/05 03:10:13;;;;;;;10.35;2.83;;;;;;;2.96;100.00;-18107.44;5059838;28;20045;-90
2023/03/05 03:12:40;;;;;;;8.20;2.90;;;;;;;2.99;100.00;-18108.13;5052354;28;20049;-90
2023/03/05 03:15:08;;;;;;;7.38;2.33;;;;;;;3.02;100.00;-18109.09;5044810;28;20045;-89
2023/03/05 03:17:34;;;;;;;9.10;2.72;;;;;;;3.00;100.00;-18108.41;5045454;28;20079;-89
2023/03/05 03:20:01;;;;;;;7.38;2.58;;;;;;;3.01;100.00;-18108.69;5041882;28;20064;-89
2023/03/05 03:22:27;;;;;;;9.23;2.90;;;;;;;2.97;100.00;-18107.59;5041527;28;20044;-89
2023/03/05 03:24:52;;;;;;;7.85;2.22;;;;;;;2.99;100.00;-18108.13;5071238;28;20579;-89
2023/03/05 03:27:17;;;;;;;9.00;2.80;;;;;;;2.92;100.00;-18106.47;5063502;28;20629;-89
2023/03/05 03:29:43;;;;;;;6.75;2.30;;;;;;;2.94;100.00;-18107.03;5048347;28;20041;-89
2023/03/05 03:32:08;;;;;;;8.55;2.30;;;;;;;2.93;100.00;-18106.63;5060671;28;20049;-89
2023/03/05 03:34:34;;;;;;;11.60;3.45;;;;;;;2.92;100.00;-18106.34;5049511;28;20044;-89
2023/03/05 03:36:59;;;;;;;9.50;3.28;;;;;;;2.89;100.00;-18105.66;5060669;28;20076;-90
2023/03/05 03:39:24;;;;;;;8.13;2.60;;;;;;;2.88;100.00;-18105.25;5052449;28;20045;-89
2023/03/05 03:41:51;;;;;;;8.18;2.08;;;;;;;2.91;100.00;-18106.06;5041606;28;20519;-90
2023/03/05 03:44:19;;;;;;;9.00;2.30;;;;;;;2.89;100.00;-18105.50;5042885;28;20048;-89
2023/03/05 03:46:45;;;;;;;11.35;2.65;;;;;;;2.85;100.00;-18104.41;5049128;28;20089;-90
2023/03/05 03:49:22;;;;;;;8.75;2.65;;;;;;;2.90;100.00;-18105.94;5061287;28;20040;-89
2023/03/05 03:51:49;;;;;;;9.65;2.75;;;;;;;2.88;100.00;-18105.38;5043245;28;20135;-89
2023/03/05 03:54:16;;;;;;;8.68;2.40;;;;;;;2.87;100.00;-18105.09;5039742;28;20036;-89
2023/03/05 03:56:42;;;;;;;6.85;2.45;;;;;;;2.89;100.00;-18105.50;5039749;28;20563;-89
2023/03/05 03:59:08;;;;;;;10.00;3.47;;;;;;;2.88;100.00;-18105.25;5062666;28;20073;-90
2023/03/05 04:01:33;;;;;;;7.10;2.97;;;;;;;2.86;100.00;-18104.81;5043272;28;20600;-89
2023/03/05 04:03:59;;;;;;;8.40;3.17;;;;;;;2.81;100.00;-18103.44;5045524;28;20049;-90
2023/03/05 04:06:25;;;;;;;7.55;2.78;;;;;;;2.86;100.00;-18104.69;5032669;28;20049;-90
2023/03/05 04:08:50;;;;;;;6.30;2.20;;;;;;;2.77;100.00;-18102.19;5040636;28;20045;-89
2023/03/05 04:11:18;;;;;;;11.80;3.58;;;;;;;2.84;100.00;-18104.13;5052997;28;20036;-89
2023/03/05 04:13:47;;;;;;;9.90;3.10;;;;;;;2.82;100.00;-18103.56;5066970;28;20436;-90
2023/03/05 04:16:13;;;;;;;8.85;3.38;;;;;;;2.81;100.00;-18103.44;5053745;28;20381;-89
2023/03/05 04:18:38;;;;;;;8.82;3.78;;;;;;;2.83;100.00;-18104.00;5063590;28;20059;-89
2023/03/05 04:21:04;;;;;;;11.15;2.50;;;;;;;2.76;100.00;-18101.91;5049678;28;20048;-89
2023/03/05 04:23:30;;;;;;;6.75;2.38;;;;;;;2.76;100.00;-18102.06;5047537;28;20051;-90
2023/03/05 04:25:55;;;;;;;8.85;3.22;;;;;;;2.77;100.00;-18102.19;5069814;28;20055;-89
2023/03/05 04:28:21;;;;;;;8.20;3.53;;;;;;;2.77;100.00;-18102.34;5053515;28;20072;-89
2023/03/05 04:30:46;;;;;;;8.98;3.38;;;;;;;2.78;100.00;-18102.47;5063022;28;20049;-89
2023/03/05 04:33:12;;;;;;;10.35;2.80;;;;;;;2.78;100.00;-18102.59;5066378;28;20123;-90
2023/03/05 04:35:37;;;;;;;9.23;2.70;;;;;;;2.77;100.00;-18102.34;5055367;28;20067;-89
2023/03/05 04:38:03;;;;;;;7.78;3.60;;;;;;;2.84;100.00;-18104.25;5059853;28;20071;-89
2023/03/05 04:40:28;;;;;;;7.78;3.60;;;;;;;2.84;100.00;-18104.13;5054119;28;20042;-90
2023/03/05 04:42:54;;;;;;;11.82;3.72;;;;;;;2.85;100.00;-18104.53;5046281;28;20128;-90
2023/03/05 04:45:19;;;;;;;8.00;2.58;;;;;;;2.84;100.00;-18104.25;5045385;28;20046;-89
2023/03/05 04:47:44;;;;;;;9.57;3.13;;;;;;;2.82;100.00;-18103.56;5045450;28;20056;-89
2023/03/05 04:50:11;;;;;;;6.85;3.13;;;;;;;2.82;100.00;-18103.72;5044814;28;20040;-90
2023/03/05 04:52:42;;;;;;;9.35;3.47;;;;;;;2.82;100.00;-18103.72;5049361;28;20055;-89
2023/03/05 04:55:11;;;;;;;6.15;2.65;;;;;;;2.83;100.00;-18103.84;5068694;28;20044;-90
2023/03/05 04:57:37;;;;;;;13.35;3.60;;;;;;;2.87;100.00;-18105.09;5050474;28;20480;-90
2023/03/05 05:00:13;;;;;;;11.27;3.92;;;;;;;2.86;100.00;-18104.69;5046957;28;20079;-89
2023/03/05 05:02:39;;;;;;;9.30;2.83;;;;;;;2.86;100.00;-18104.69;5048362;28;20061;-90
2023/03/05 05:05:05;;;;;;;9.63;4.22;;;;;;;2.82;100.00;-18103.56;5055075;28;20036;-90
2023/03/05 05:07:31;;;;;;;12.18;3.83;;;;;;;2.83;100.00;-18103.84;5054702;28;20105;-89
2023/03/05 05:09:57;;;;;;;10.75;3.25;;;;;;;2.83;100.00;-18104.00;5035611;28;20511;-89
2023/03/05 05:12:22;;;;;;;10.30;3.63;;;;;;;2.81;100.00;-18103.31;5045518;28;20041;-89
2023/03/05 05:14:48;;;;;;;10.95;4.50;;;;;;;2.84;100.00;-18104.13;5056921;28;20728;-87
2023/03/05 05:17:13;;;;;;;10.30;4.32;;;;;;;2.82;100.00;-18103.72;5044705;28;20043;-87
2023/03/05 05:19:39;;;;;;;10.85;4.85;;;;;;;2.86;100.00;-18104.81;5043903;28;20053;-87
2023/03/05 05:22:04;;;;;;;13.27;4.30;;;;;;;2.82;100.00;-18103.72;5058051;28;20665;-87
2023/03/05 05:24:29;;;;;;;10.07;4.22;;;;;;;2.84;100.00;-18104.25;5045671;28;20029;-87
2023/03/05 05:26:55;;;;;;;11.00;5.22;;;;;;;2.86;100.00;-18104.81;5057405;28;20040;-87
2023/03/05 05:29:21;;;;;;;12.98;5.53;;;;;;;2.82;100.00;-18103.72;5058490;28;20041;-87
2023/03/05 05:31:47;;;;;;;21.58;4.97;;;;;;;2.82;100.00;-18103.56;5042227;28;20451;-87
2023/03/05 05:34:12;;;;;;;10.60;4.38;;;;;;;2.80;100.00;-18103.16;5040886;28;20138;-87
2023/03/05 05:36:37;;;;;;;16.63;6.18;;;;;;;2.82;100.00;-18103.72;5050163;28;20080;-87
2023/03/05 05:39:04;;;;;;;11.00;5.25;;;;;;;2.83;100.00;-18104.00;5049177;28;20045;-87
2023/03/05 05:41:29;;;;;;;12.35;3.80;;;;;;;2.85;100.00;-18104.41;5050258;28;20080;-87
2023/03/05 05:43:54;;;;;;;11.27;4.82;;;;;;;2.84;100.00;-18104.25;5052685;28;20494;-87
2023/03/05 05:46:21;;;;;;;15.45;5.25;;;;;;;2.82;100.00;-18103.72;5067740;28;20792;-87
2023/03/05 05:48:47;;;;;;;12.75;4.72;;;;;;;2.83;100.00;-18104.00;5055299;28;20044;-87
2023/03/05 05:51:15;;;;;;;8.98;4.43;;;;;;;2.82;100.00;-18103.72;5044912;28;20538;-87
2023/03/05 05:53:41;;;;;;;11.43;5.33;;;;;;;2.83;100.00;-18104.00;5061864;28;20074;-87
2023/03/05 05:56:09;;;;;;;12.52;4.72;;;;;;;2.83;100.00;-18104.00;5043165;28;20060;-87
2023/03/05 05:58:36;;;;;;;9.98;4.75;;;;;;;2.84;100.00;-18104.25;5046789;28;20122;-87
2023/03/05 06:01:09;;;;;;;11.60;4.25;;;;;;;2.79;100.00;-18102.75;5065099;28;20044;-88
2023/03/05 06:03:35;;;;;;;11.93;4.80;;;;;;;2.82;100.00;-18103.56;5057362;28;20045;-87
2023/03/05 06:06:00;;;;;;;9.57;5.55;;;;;;;2.80;100.00;-18103.16;5062180;28;20388;-87
2023/03/05 06:08:26;;;;;;;11.45;4.47;;;;;;;2.79;100.00;-18102.75;5051774;23;20049;-83
2023/03/05 06:10:54;;;;;;;11.45;6.20;;;;;;;2.80;100.00;-18103.16;5023970;28;20080;-83
2023/03/05 06:13:20;;;;;;;15.55;5.53;;;;;;;2.86;100.00;-18104.69;5026101;28;20041;-84
2023/03/05 06:15:55;;;;;;;15.18;6.28;;;;;;;2.79;100.00;-18102.88;5036081;28;20049;-84
2023/03/05 06:18:20;;;;;;;14.35;6.38;;;;;;;2.81;100.00;-18103.44;5043710;28;20041;-84
2023/03/05 06:20:53;;;;;;;14.80;6.18;;;;;;;2.81;100.00;-18103.44;5043440;28;20064;-83
2023/03/05 06:23:18;;;;;;;13.27;5.60;;;;;;;2.82;100.00;-18103.72;5040213;28;20136;-83
2023/03/05 06:25:43;;;;;;;15.15;5.90;;;;;;;2.83;100.00;-18103.84;5042263;28;20128;-84
2023/03/05 06:28:09;;;;;;;12.23;5.40;;;;;;;2.83;100.00;-18103.84;5023097;28;20037;-84
2023/03/05 06:30:34;;;;;;;10.73;5.25;;;;;;;2.78;100.00;-18102.59;5049829;28;20037;-84
2023/03/05 06:33:00;;;;;;;13.93;5.65;;;;;;;2.82;100.00;-18103.56;5026709;28;20048;-84
2023/03/05 06:35:25;;;;;;;13.63;5.68;;;;;;;2.84;100.00;-18104.13;5042391;28;20132;-83
2023/03/05 06:37:50;;;;;;;16.27;5.68;;;;;;;2.82;100.00;-18103.72;5041965;28;20405;-83
2023/03/05 06:40:16;;;;;;;7.57;4.18;;;;;;;2.79;100.00;-18102.75;5043165;28;20053;-83
2023/03/05 06:42:41;;;;;;;13.75;6.40;;;;;;;2.86;100.00;-18104.69;5048725;28;20139;-82
2023/03/05 06:45:07;;;;;;;14.00;6.53;;;;;;;2.85;100.00;-18104.53;5038395;28;20488;-83
2023/03/05 06:47:33;;;;;;;13.85;6.00;;;;;;;2.82;100.00;-18103.72;5027808;28;20053;-83
2023/03/05 06:49:59;;;;;;;16.55;6.90;;;;;;;2.86;100.00;-18104.81;5032735;28;20037;-82
2023/03/05 06:52:24;;;;;;;16.27;5.38;;;;;;;2.89;100.00;-18105.66;5020592;28;20098;-83
2023/03/05 06:54:50;;;;;;;12.57;6.38;;;;;;;2.90;100.00;-18105.94;5020876;28;20098;-83
2023/03/05 06:57:15;;;;;;;15.65;6.00;;;;;;;2.88;100.00;-18105.38;5040902;28;20053;-83
2023/03/05 06:59:41;;;;;;;11.13;5.63;;;;;;;2.90;100.00;-18105.94;5044869;28;20053;-82
2023/03/05 07:02:10;;;;;;;17.77;6.85;;;;;;;2.90;100.00;-18105.94;5040362;28;20421;-82
2023/03/05 07:04:35;;;;;;;15.75;6.97;;;;;;;2.93;100.00;-18106.75;5033616;28;20064;-83
2023/03/05 07:07:00;;;;;;;15.15;6.75;;;;;;;2.94;100.00;-18107.03;5040141;28;20545;-81
2023/03/05 07:09:26;;;;;;;18.17;9.63;;;;;;;2.97;100.00;-18107.59;5023405;28;20045;-82
2023/03/05 07:11:51;;;;;;;17.75;7.63;;;;;;;2.97;100.00;-18107.72;5027681;28;20044;-83
2023/03/05 07:14:16;;;;;;;19.65;10.65;;;;;;;3.01;100.00;-18108.69;5046032;28;20120;-84
2023/03/05 07:16:42;;;;;;;15.95;8.57;;;;;;;3.02;100.00;-18108.97;5040238;28;20049;-83
2023/03/05 07:19:09;;;;;;;17.00;8.35;;;;;;;3.04;100.00;-18109.53;5028800;28;20111;-83
2023/03/05 07:21:35;;;;;;;17.73;8.95;;;;;;;3.04;100.00;-18109.66;5046567;28;20072;-83
2023/03/05 07:24:01;;;;;;;16.60;8.05;;;;;;;3.07;100.00;-18110.34;5044947;28;20072;-83
2023/03/05 07:26:27;;;;;;;20.00;9.38;;;;;;;3.08;100.00;-18110.78;5037926;28;20042;-82
2023/03/05 07:28:53;;;;;;;17.02;8.80;;;;;;;3.12;100.00;-18111.72;5052417;28;20074;-82
2023/03/05 07:31:21;;;;;;;13.57;6.43;;;;;;;3.07;100.00;-18110.34;5053850;28;20385;-82
2023/03/05 07:33:48;;;;;;;17.17;8.50;;;;;;;3.07;100.00;-18110.34;5050821;28;20105;-83
2023/03/05 07:36:14;;;;;;;16.40;8.68;;;;;;;3.08;100.00;-18110.63;5035855;28;20272;-83
2023/03/05 07:38:40;;;;;;;15.10;8.55;;;;;;;3.10;100.00;-18111.19;5035052;28;20041;-82
2023/03/05 07:41:09;;;;;;;17.95;9.95;;;;;;;3.07;100.00;-18110.34;5026415;28;20420;-82
2023/03/05 07:43:34;;;;;;;13.32;6.57;;;;;;;3.10;100.00;-18111.31;5029961;28;20033;-83
2023/03/05 07:46:03;;;;;;;12.32;7.00;;;;;;;3.13;100.00;-18112.00;5015229;28;20068;-83
2023/03/05 07:48:28;;;;;;;17.23;8.30;;;;;;;3.10;100.00;-18111.19;5025557;28;20100;-83
2023/03/05 07:51:05;;;;;;;15.95;8.60;;;;;;;3.08;100.00;-18110.78;5031279;28;20054;-82
2023/03/05 07:53:31;;;;;;;15.77;7.95;;;;;;;3.09;100.00;-18111.03;5028763;28;20044;-82
2023/03/05 07:55:56;;;;;;;13.82;7.68;;;;;;;3.12;100.00;-18111.72;5027517;28;20093;-83
2023/03/05 07:58:22;;;;;;;12.45;7.65;;;;;;;3.10;100.00;-18111.19;5032401;28;20546;-82
2023/03/05 08:00:47;;;;;;;14.40;8.10;;;;;;;3.12;100.00;-18111.72;5033055;28;20103;-82
2023/03/05 08:03:13;;;;;;;12.70;6.78;;;;;;;3.18;100.00;-18113.38;5030692;28;20423;-82
2023/03/05 08:05:40;;;;;;;13.05;7.15;;;;;;;3.10;100.00;-18111.19;5026680;28;20493;-83
2023/03/05 08:08:06;;;;;;;12.32;7.18;;;;;;;3.15;100.00;-18112.56;5032212;28;20049;-82
2023/03/05 08:10:33;;;;;;;19.20;8.18;;;;;;;3.18;100.00;-18113.38;5028061;28;20048;-82
2023/03/05 08:12:58;;;;;;;9.18;4.63;;;;;;;3.15;100.00;-18112.56;5022665;28;20104;-83
2023/03/05 08:15:23;;;;;;;10.77;6.82;;;;;;;3.14;100.00;-18112.28;5018928;28;20116;-83
2023/03/05 08:17:49;;;;;;;10.95;5.07;;;;;;;3.10;100.00;-18111.31;5026425;28;20119;-83
2023/03/05 08:20:14;;;;;;;10.77;6.93;;;;;;;3.12;100.00;-18111.72;5030323;28;20047;-83
2023/03/05 08:22:40;;;;;;;12.77;6.03;;;;;;;3.17;100.00;-18113.25;5029367;28;20040;-83
2023/03/05 08:25:06;;;;;;;14.20;7.00;;;;;;;3.19;100.00;-18113.66;5042687;28;20033;-83
2023/03/05 08:27:32;;;;;;;13.52;7.70;;;;;;;3.15;100.00;-18112.69;5047131;28;20120;-83
2023/03/05 08:29:57;;;;;;;11.93;5.75;;;;;;;3.20;100.00;-18113.94;5026271;28;20132;-84
2023/03/05 08:32:23;;;;;;;8.85;6.10;;;;;;;3.25;100.00;-18115.19;5018395;28;20682;-83
2023/03/05 08:34:48;;;;;;;10.80;6.47;;;;;;;3.29;100.00;-18116.44;5032569;28;20052;-83
2023/03/05 08:37:14;;;;;;;12.57;6.35;;;;;;;3.33;100.00;-18117.53;5026240;28;20038;-83
2023/03/05 08:39:39;;;;;;;11.48;6.30;;;;;;;3.34;100.00;-18117.81;5028308;28;20109;-83
2023/03/05 08:42:05;;;;;;;10.27;5.65;;;;;;;3.26;100.00;-18115.59;5030435;28;20052;-83
2023/03/05 08:44:30;;;;;;;10.43;6.38;;;;;;;3.29;100.00;-18116.44;5026493;28;20115;-83
2023/03/05 08:46:56;;;;;;;11.55;6.50;;;;;;;3.41;100.00;-18119.63;5026680;28;20056;-83
2023/03/05 08:49:21;;;;;;;10.85;5.32;;;;;;;3.40;100.00;-18119.34;5033973;28;20029;-83
2023/03/05 08:51:47;;;;;;;8.38;5.38;;;;;;;3.42;100.00;-18119.88;5009207;28;20408;-83
2023/03/05 08:54:12;;;;;;;8.80;5.40;;;;;;;3.48;100.00;-18121.41;5028087;28;20065;-83
2023/03/05 08:56:38;;;;;;;10.00;5.35;;;;;;;3.55;100.00;-18123.47;5027645;28;20041;-83
2023/03/05 08:59:04;;;;;;;7.97;5.28;;;;;;;3.54;100.00;-18123.22;5027012;28;20522;-83
2023/03/05 09:01:30;;;;;;;8.63;5.10;;;;;;;3.57;100.00;-18124.03;5034613;28;20037;-83
2023/03/05 09:03:57;;;;;;;8.80;5.47;;;;;;;3.59;100.00;-18124.59;5033549;28;20129;-83
2023/03/05 09:06:23;;;;;;;6.82;4.45;;;;;;;3.58;100.00;-18124.16;5033042;28;20045;-83
2023/03/05 09:08:49;;;;;;;7.95;5.22;;;;;;;3.63;100.00;-18125.41;5029022;28;20057;-83
2023/03/05 09:11:14;;;;;;;6.90;4.40;;;;;;;3.70;100.00;-18127.50;5027645;28;20048;-83
2023/03/05 09:13:40;;;;;;;9.20;4.60;;;;;;;3.70;100.00;-18127.50;5018323;28;20057;-83
2023/03/05 09:16:10;;;;;;;9.48;4.50;;;;;;;3.79;100.00;-18129.84;5031929;28;20071;-83
2023/03/05 09:18:36;;;;;;;8.07;4.82;;;;;;;3.79;100.00;-18129.84;5008065;28;20045;-83
2023/03/05 09:21:20;;;;;;;7.28;3.60;;;;;;;3.84;100.00;-18131.22;5033616;28;20038;-83
2023/03/05 09:23:48;;;;;;;10.38;4.60;;;;;;;3.88;100.00;-18132.19;5045099;28;20049;-83
2023/03/05 09:26:17;;;;;;;9.18;4.28;;;;;;;3.87;100.00;-18132.03;5043184;28;20487;-83
2023/03/05 09:28:43;;;;;;;7.60;4.50;;;;;;;3.90;100.00;-18132.88;5041845;28;20069;-83
2023/03/05 09:31:10;;;;;;;8.70;3.60;;;;;;;3.91;100.00;-18133.16;5052812;28;20546;-83
2023/03/05 09:33:37;;;;;;;5.85;3.60;;;;;;;4.01;100.00;-18135.78;5049545;28;20045;-83
2023/03/05 09:36:03;;;;;;;7.90;4.40;;;;;;;4.10;100.00;-18138.25;5030193;28;20411;-83
2023/03/05 09:38:29;;;;;;;9.50;5.10;;;;;;;4.10;100.00;-18138.13;5043804;28;20041;-83
2023/03/05 09:41:06;;;;;;;7.85;4.38;;;;;;;4.11;100.00;-18138.41;5048907;28;20057;-83
2023/03/05 09:43:53;;;;;;;11.15;5.45;;;;;;;4.13;100.00;-18139.09;5050610;28;20140;-83
2023/03/05 09:46:49;;;;;;;12.25;5.70;;;;;;;4.21;100.00;-18141.16;5030830;28;20135;-83
2023/03/05 09:49:37;;;;;;;11.82;4.78;;;;;;;4.19;100.00;-18140.75;5046902;28;20036;-83
2023/03/05 09:52:13;;;;;;;11.68;6.35;;;;;;;4.27;100.00;-18142.81;5045584;28;20042;-83
2023/03/05 09:54:43;;;;;;;9.85;4.30;;;;;;;4.31;100.00;-18143.94;5044964;28;20048;-83
2023/03/05 09:57:21;;;;;;;9.63;4.03;;;;;;;4.44;100.00;-18147.53;5048242;28;20037;-84
2023/03/05 09:59:50;;;;;;;8.60;3.70;;;;;;;4.60;100.00;-18151.66;5004357;28;20042;-83
2023/03/05 10:02:21;;;;;;;5.32;3.45;;;;;;;4.77;100.00;-18156.22;5024147;28;20045;-84
2023/03/05 10:04:57;;;;;;;7.03;3.00;;;;;;;4.82;100.00;-18157.59;5019827;28;20722;-84
2023/03/05 10:07:43;;;;;;;5.47;2.80;;;;;;;4.55;100.00;-18150.41;5026525;28;20053;-84
2023/03/05 10:10:16;;;;;;;6.22;3.17;;;;;;;4.53;100.00;-18149.88;5020552;28;20138;-83
2023/03/05 10:13:04;;;;;;;8.63;3.05;;;;;;;4.56;100.00;-18150.69;5019281;28;20061;-83
2023/03/05 10:15:42;;;;;;;8.70;3.42;;;;;;;4.72;100.00;-18155.13;5021037;28;20034;-83
2023/03/05 10:18:25;;;;;;;6.07;2.15;;;;;;;4.77;100.00;-18156.22;5025459;28;20053;-84
2023/03/05 10:20:58;;;;;;;6.50;2.30;;;;;;;4.85;100.00;-18158.56;5003222;28;20048;-83
2023/03/05 10:23:35;;;;;;;6.90;2.45;;;;;;;4.93;100.00;-18160.63;5024312;28;20068;-83
2023/03/05 10:26:11;;;;;;;6.78;2.50;;;;;;;5.01;100.00;-18162.72;5018224;28;20547;-83
2023/03/05 10:29:05;;;;;;;6.32;1.73;;;;;;;4.95;100.00;-18161.19;5018597;28;20051;-83
2023/03/05 10:31:45;;;;;;;5.43;2.22;;;;;;;4.95;100.00;-18161.19;5011684;28;20171;-83
2023/03/05 10:34:32;;;;;;;6.13;2.17;;;;;;;5.12;100.00;-18165.75;5031426;28;20049;-83
2023/03/05 10:37:39;;;;;;;4.25;1.70;;;;;;;5.26;100.00;-18169.47;5009246;28;20088;-83
2023/03/05 10:40:19;;;;;;;3.92;2.03;;;;;;;5.31;100.00;-18171.00;4929356;29;20092;-83
2023/03/05 10:43:13;;;;;;;5.05;2.00;;;;;;;5.37;100.00;-18172.50;5024819;28;20037;-83
2023/03/05 10:45:41;;;;;;;5.82;2.17;;;;;;;5.40;100.00;-18173.47;5023691;28;20100;-83
2023/03/05 10:48:57;;;;;;;8.10;1.60;;;;;;;5.44;100.00;-18174.44;5034789;28;20033;-83
2023/03/05 10:51:51;;;;;;;6.20;2.17;;;;;;;5.43;100.00;-18174.16;4929845;29;20273;-83
2023/03/05 10:54:31;;;;;;;6.25;2.25;;;;;;;5.47;100.00;-18175.25;5009638;28;20034;-84
2023/03/05 10:57:23;;;;;;;5.60;1.85;;;;;;;5.56;100.00;-18177.75;5009948;28;20038;-83
2023/03/05 10:59:53;;;;;;;6.85;3.10;;;;;;;5.58;100.00;-18178.16;5009757;28;20045;-83
2023/03/05 11:02:20;;;;;;;6.95;2.20;;;;;;;5.68;100.00;-18180.91;5031893;28;20064;-83
2023/03/05 11:04:46;;;;;;;4.15;2.15;;;;;;;5.76;100.00;-18183.00;5029087;28;20122;-83
2023/03/05 11:07:14;;;;;;;2.92;1.27;;;;;;;5.82;100.00;-18184.66;5030514;28;20041;-83
2023/03/05 11:10:00;;;;;;;4.82;1.88;;;;;;;5.81;100.00;-18184.50;5006077;28;20046;-83
2023/03/05 11:12:27;;;;;;;4.13;1.65;;;;;;;5.86;100.00;-18185.88;5030692;28;20048;-83
2023/03/05 11:15:08;;;;;;;6.95;2.00;;;;;;;5.82;100.00;-18184.66;5032682;28;20695;-84
2023/03/05 11:17:38;;;;;;;6.57;1.77;;;;;;;5.79;100.00;-18183.81;5030155;28;20050;-83
2023/03/05 11:20:30;;;;;;;7.82;1.95;;;;;;;5.96;100.00;-18188.50;5030494;28;20475;-83
2023/03/05 11:23:15;;;;;;;3.22;1.50;;;;;;;5.97;100.00;-18188.78;5010119;28;20052;-83
2023/03/05 11:26:11;;;;;;;5.88;1.40;;;;;;;6.05;100.00;-18191.00;5015767;28;20441;-84
2023/03/05 11:28:50;;;;;;;3.33;1.00;;;;;;;5.95;100.00;-18188.22;5033604;28;20037;-82